Terminal Aerodrome Forecast
Issued by NWS

Home | Current Version | Previous Version | Text Only | Print | Product List | Glossary On
Versions: 1 2 3 4 5 6 7 8 9 10 11 12 13
000
FTUS42 TJSJ 221700
TAFJMZ
TAF
TJMZ 221720Z 2218/2318 28010KT P6SM VCTS FEW025CB BKN050
      TEMPO 2218/2221 VRB12G20KT 4SM SHRA BKN025
     FM222330 VRB05KT P6SM SCT025 SCT070
     FM231450 27005KT P6SM FEW025 SCT040
      AMD NOT SKED 2223/2311=

USA.gov is the U.S. government's official web portal to all federal, state and local government web resources and services.